createdAt,value
2024-04-06T00:00:12.380Z,10.20
2024-04-06T00:12:29.428Z,10.19
2024-04-06T00:16:59.364Z,10.24
2024-04-06T00:24:54.157Z,10.19
2024-04-06T00:29:00.389Z,10.18
2024-04-06T00:33:28.921Z,10.16
2024-04-06T00:37:58.221Z,10.13
2024-04-06T00:42:28.023Z,10.09
2024-04-06T00:49:50.418Z,10.05
2024-04-06T00:54:07.765Z,10.05
2024-04-06T00:58:09.394Z,10.03
2024-04-06T01:02:37.250Z,10.00
2024-04-06T01:06:34.644Z,9.99
2024-04-06T01:10:41.541Z,9.95
2024-04-06T01:22:03.234Z,9.66
2024-04-06T01:29:31.221Z,9.43
2024-04-06T01:33:31.371Z,9.32
2024-04-06T01:37:49.218Z,9.20
2024-04-06T01:48:21.180Z,9.09
2024-04-06T01:52:21.211Z,9.08
2024-04-06T01:56:32.298Z,9.04
2024-04-06T02:03:28.171Z,9.04
2024-04-06T02:07:28.308Z,9.03
2024-04-06T02:12:01.977Z,9.00
2024-04-06T02:15:50.125Z,8.98
2024-04-06T02:19:54.250Z,8.93
2024-04-06T02:28:22.211Z,9.24
2024-04-06T02:32:11.278Z,9.32
2024-04-06T02:36:44.464Z,9.37
2024-04-06T02:40:51.490Z,9.35
2024-04-06T02:44:58.478Z,9.32
2024-04-06T02:48:56.114Z,9.29
2024-04-06T02:56:28.170Z,9.25
2024-04-06T03:00:45.437Z,9.24
2024-04-06T03:04:46.096Z,9.21
2024-04-06T03:08:38.415Z,9.26
2024-04-06T03:12:53.311Z,9.35
2024-04-06T03:23:52.084Z,9.69
2024-04-06T03:28:17.473Z,9.77
2024-04-06T03:32:18.062Z,9.84
2024-04-06T03:36:39.255Z,9.90
2024-04-06T03:44:06.744Z,10.10
2024-04-06T03:48:28.024Z,10.17
2024-04-06T03:56:54.123Z,10.28
2024-04-06T04:00:55.347Z,10.33
2024-04-06T04:05:17.202Z,10.36
2024-04-06T04:09:45.319Z,10.40
2024-04-06T04:14:13.812Z,10.45
2024-04-06T04:33:50.897Z,10.63
2024-04-06T04:38:19.720Z,10.68
2024-04-06T04:42:49.163Z,10.72
2024-04-06T04:57:32.105Z,10.86
2024-04-06T05:02:00.737Z,10.91
2024-04-06T05:06:29.091Z,10.98
2024-04-06T05:14:38.033Z,11.12
2024-04-06T05:19:15.287Z,11.14
2024-04-06T05:23:48.112Z,11.17
2024-04-06T05:28:16.273Z,11.26
2024-04-06T05:32:45.201Z,11.35
2024-04-06T05:37:15.009Z,11.43
2024-04-06T05:53:20.406Z,12.59
2024-04-06T06:01:24.202Z,13.46
2024-04-06T06:05:52.913Z,13.73
2024-04-06T06:17:09.166Z,14.19
2024-04-06T06:21:27.105Z,14.61
2024-04-06T06:25:55.173Z,15.37
2024-04-06T06:30:23.843Z,16.17
2024-04-06T06:34:52.210Z,16.78
2024-04-06T06:44:04.512Z,17.56
2024-04-06T06:48:36.530Z,17.94
2024-04-06T07:13:12.124Z,18.06
2024-04-06T07:17:40.766Z,17.88
2024-04-06T07:22:09.963Z,18.08
2024-04-06T07:37:53.497Z,18.17
2024-04-06T07:42:21.337Z,18.30
2024-04-06T07:46:48.635Z,18.16
2024-04-06T07:51:17.588Z,17.73
2024-04-06T08:14:28.995Z,17.90
2024-04-06T08:18:56.947Z,18.03
2024-04-06T08:23:24.494Z,18.10
2024-04-06T08:28:02.269Z,17.97
2024-04-06T08:40:18.969Z,18.37
2024-04-06T08:49:10.029Z,18.23
2024-04-06T08:53:21.302Z,18.13
2024-04-06T08:57:49.399Z,18.24
2024-04-06T09:06:05.826Z,18.29
2024-04-06T09:10:34.550Z,18.25
2024-04-06T09:15:03.401Z,18.28
2024-04-06T09:30:22.051Z,18.24
2024-04-06T09:34:50.974Z,18.01
2024-04-06T09:39:19.672Z,17.74
2024-04-06T09:43:58.127Z,17.57
2024-04-06T09:48:06.907Z,17.19
2024-04-06T09:52:15.655Z,16.65
2024-04-06T09:56:00.997Z,15.86
2024-04-06T09:59:15.962Z,15.22
2024-04-06T10:16:14.458Z,13.87
2024-04-06T10:19:28.736Z,13.33
2024-04-06T10:22:26.140Z,13.09
2024-04-06T10:25:24.634Z,12.90
2024-04-06T10:32:39.644Z,12.48
2024-04-06T10:36:31.979Z,12.32
2024-04-06T10:40:57.355Z,12.22
2024-04-06T10:44:32.174Z,12.24
2024-04-06T11:11:09.170Z,12.60
2024-04-06T11:22:31.578Z,13.14
2024-04-06T11:26:26.172Z,13.31
2024-04-06T11:48:34.228Z,14.00
2024-04-06T11:52:42.676Z,14.30
2024-04-06T12:00:21.830Z,14.82
2024-04-06T12:04:47.664Z,15.04
2024-04-06T12:09:00.807Z,15.16
2024-04-06T12:13:29.844Z,15.31
2024-04-06T12:17:59.547Z,15.37
2024-04-06T12:41:31.866Z,15.50
2024-04-06T12:57:35.787Z,15.35
2024-04-06T13:06:14.841Z,15.42
2024-04-06T13:14:47.952Z,15.72
2024-04-06T13:29:43.862Z,15.77
2024-04-06T13:34:12.287Z,15.64
2024-04-06T13:38:38.109Z,15.48
2024-04-06T13:42:46.702Z,15.40
2024-04-06T13:47:15.650Z,15.30
2024-04-06T13:51:50.159Z,15.30
2024-04-06T13:56:21.066Z,15.21
2024-04-06T14:00:49.550Z,15.18
2024-04-06T14:05:18.678Z,15.15
2024-04-06T14:16:37.537Z,15.09
2024-04-06T14:32:40.091Z,15.23
2024-04-06T14:54:25.628Z,15.16
2024-04-06T14:58:05.558Z,15.07
2024-04-06T15:05:46.615Z,14.99
2024-04-06T15:13:39.249Z,14.99
2024-04-06T15:38:21.259Z,15.05
2024-04-06T15:42:30.091Z,15.02
2024-04-06T16:05:56.402Z,14.87
2024-04-06T16:17:54.133Z,14.74
2024-04-06T16:22:23.244Z,14.70
2024-04-06T16:26:42.376Z,14.66
2024-04-06T16:30:55.122Z,14.62
2024-04-06T16:38:36.248Z,14.52
2024-04-06T16:46:23.560Z,14.34
2024-04-06T16:54:09.523Z,14.18
2024-04-06T16:57:59.429Z,14.13
2024-04-06T17:02:12.407Z,14.06
2024-04-06T17:09:04.402Z,13.94
2024-04-06T17:13:36.386Z,13.94
2024-04-06T17:18:05.092Z,13.89
2024-04-06T17:22:35.026Z,13.81
2024-04-06T17:30:01.389Z,13.69
2024-04-06T17:36:49.042Z,13.65
2024-04-06T17:40:58.385Z,13.65
2024-04-06T17:44:58.022Z,13.64
2024-04-06T17:49:19.369Z,13.63
2024-04-06T17:53:32.031Z,13.56
2024-04-06T17:57:45.579Z,13.52
2024-04-06T18:04:53.365Z,13.46
2024-04-06T18:08:53.322Z,13.42
2024-04-06T18:13:22.253Z,13.37
2024-04-06T18:17:17.991Z,13.33
2024-04-06T18:21:29.351Z,13.29
2024-04-06T18:25:53.618Z,13.26
2024-04-06T18:29:52.093Z,13.24
2024-04-06T18:37:17.052Z,13.21
2024-04-06T18:41:34.489Z,13.20
2024-04-06T18:45:46.405Z,13.18
2024-04-06T18:54:20.638Z,13.19
2024-04-06T18:58:40.898Z,13.24
2024-04-06T19:02:53.497Z,13.33
2024-04-06T19:14:03.270Z,13.50
2024-04-06T19:18:09.209Z,13.57
2024-04-06T19:21:57.934Z,13.59
2024-04-06T19:29:37.016Z,13.64
2024-04-06T19:33:21.052Z,13.64
2024-04-06T19:37:46.089Z,13.65
2024-04-06T19:42:14.730Z,13.64
2024-04-06T19:49:58.412Z,13.74
2024-04-06T19:58:10.254Z,13.71
2024-04-06T20:01:47.355Z,13.71
2024-04-06T20:06:07.734Z,13.70
2024-04-06T20:13:17.249Z,13.67
2024-04-06T20:17:45.864Z,13.68
2024-04-06T20:21:08.916Z,13.68
2024-04-06T20:25:13.431Z,13.67
2024-04-06T20:29:22.784Z,13.68
2024-04-06T20:37:07.961Z,13.66
2024-04-06T20:41:29.653Z,13.61
2024-04-06T20:48:37.702Z,13.56
2024-04-06T20:53:09.784Z,13.38
2024-04-06T20:57:10.604Z,13.21
2024-04-06T21:04:57.632Z,12.87
2024-04-06T21:09:07.954Z,12.70
2024-04-06T21:12:49.604Z,12.53
2024-04-06T21:16:48.631Z,12.43
2024-04-06T21:20:59.556Z,12.38
2024-04-06T21:28:53.571Z,12.32
2024-04-06T21:32:43.834Z,12.31
2024-04-06T21:37:02.237Z,12.28
2024-04-06T21:41:05.520Z,12.27
2024-04-06T21:45:02.882Z,12.29
2024-04-06T21:49:03.823Z,12.34
2024-04-06T21:52:45.513Z,12.37
2024-04-06T21:56:36.626Z,12.40
2024-04-06T22:00:39.983Z,12.42
2024-04-06T22:04:52.802Z,12.42
2024-04-06T22:09:01.879Z,12.44
2024-04-06T22:12:42.804Z,12.45
2024-04-06T22:16:24.500Z,12.48
2024-04-06T22:20:19.632Z,12.51
2024-04-06T22:24:32.865Z,12.54
2024-04-06T22:28:14.469Z,12.58
2024-04-06T22:32:35.922Z,12.63
2024-04-06T22:36:54.433Z,12.65
2024-04-06T22:45:27.477Z,12.64
2024-04-06T22:49:27.510Z,12.63
2024-04-06T22:53:35.670Z,12.61
2024-04-06T22:57:48.574Z,12.56
2024-04-06T23:01:31.407Z,12.45
2024-04-06T23:05:37.316Z,12.31
2024-04-06T23:09:34.417Z,12.14
2024-04-06T23:13:01.500Z,12.05
2024-04-06T23:17:16.444Z,12.02
2024-04-06T23:20:39.375Z,12.07
2024-04-06T23:25:02.377Z,12.08
2024-04-06T23:29:33.360Z,12.09
2024-04-06T23:33:39.482Z,12.17
2024-04-06T23:37:07.410Z,12.27
2024-04-06T23:40:31.765Z,12.31
2024-04-06T23:44:43.564Z,12.23
2024-04-06T23:48:33.727Z,12.15
2024-04-06T23:52:21.669Z,12.10
2024-04-06T23:56:31.383Z,12.11
